createdAt,value
2019-05-19T00:04:43.471Z,13.42
2019-05-19T00:09:39.620Z,13.41
2019-05-19T00:14:35.651Z,12.96
2019-05-19T00:19:31.548Z,12.96
2019-05-19T00:24:27.475Z,13.03
2019-05-19T00:29:23.396Z,12.89
2019-05-19T00:34:19.420Z,12.45
2019-05-19T00:39:16.014Z,13.19
2019-05-19T00:44:12.190Z,13.10
2019-05-19T00:49:08.107Z,13.14
2019-05-19T00:54:04.029Z,13.09
2019-05-19T00:59:00.059Z,13.13
2019-05-19T01:03:55.985Z,13.43
2019-05-19T01:08:56.656Z,13.28
2019-05-19T01:13:52.683Z,13.44
2019-05-19T01:18:48.612Z,13.40
2019-05-19T01:23:44.641Z,13.42
2019-05-19T01:28:40.560Z,13.51
2019-05-19T01:33:36.584Z,13.48
2019-05-19T01:38:43.962Z,13.41
2019-05-19T01:43:39.901Z,13.62
2019-05-19T01:48:35.835Z,13.55
2019-05-19T01:53:31.758Z,13.47
2019-05-19T01:58:27.689Z,13.43
2019-05-19T02:03:23.620Z,13.31
2019-05-19T02:08:21.035Z,13.32
2019-05-19T02:13:17.073Z,13.17
2019-05-19T02:18:13.399Z,12.72
2019-05-19T02:23:09.430Z,13.17
2019-05-19T02:28:05.362Z,12.87
2019-05-19T02:33:01.318Z,12.57
2019-05-19T02:37:57.767Z,12.44
2019-05-19T02:42:53.796Z,12.58
2019-05-19T02:47:50.837Z,12.49
2019-05-19T02:52:48.717Z,12.69
2019-05-19T02:57:45.010Z,12.15
2019-05-19T03:02:40.952Z,12.04
2019-05-19T03:07:36.896Z,12.00
2019-05-19T03:12:32.825Z,12.00
2019-05-19T03:17:28.764Z,12.05
2019-05-19T03:22:24.693Z,11.33
2019-05-19T03:27:20.622Z,11.33
2019-05-19T03:32:21.213Z,11.31
2019-05-19T03:37:17.250Z,11.87
2019-05-19T03:42:13.194Z,11.93
2019-05-19T03:47:09.130Z,11.55
2019-05-19T03:52:05.164Z,11.38
2019-05-19T03:57:01.098Z,11.21
2019-05-19T04:01:57.036Z,11.48
2019-05-19T04:06:52.932Z,11.46
2019-05-19T04:11:48.874Z,11.46
2019-05-19T04:16:44.807Z,11.38
2019-05-19T04:21:48.637Z,11.34
2019-05-19T04:26:39.302Z,11.52
2019-05-19T04:31:35.233Z,11.46
2019-05-19T04:36:31.157Z,11.62
2019-05-19T04:41:27.089Z,11.77
2019-05-19T04:46:23.021Z,11.72
2019-05-19T04:51:19.042Z,12.00
2019-05-19T04:56:14.973Z,12.23
2019-05-19T05:01:10.904Z,12.65
2019-05-19T05:06:06.828Z,12.99
2019-05-19T05:11:03.030Z,13.23
2019-05-19T05:15:58.952Z,13.96
2019-05-19T05:20:54.873Z,14.38
2019-05-19T05:25:50.803Z,14.68
2019-05-19T05:30:46.729Z,14.87
2019-05-19T05:35:42.750Z,14.95
2019-05-19T05:40:38.673Z,15.19
2019-05-19T05:45:34.706Z,15.64
2019-05-19T05:50:30.640Z,15.91
2019-05-19T05:55:26.571Z,16.39
2019-05-19T06:00:22.707Z,16.55
2019-05-19T06:05:18.635Z,16.57
2019-05-19T06:10:14.870Z,16.66
2019-05-19T06:15:10.900Z,16.95
2019-05-19T06:20:07.573Z,17.14
2019-05-19T06:25:05.025Z,17.40
2019-05-19T06:30:01.152Z,17.77
2019-05-19T06:34:57.079Z,17.00
2019-05-19T06:39:55.006Z,17.42
2019-05-19T06:44:51.789Z,17.42
2019-05-19T06:49:47.951Z,17.74
2019-05-19T06:54:43.877Z,17.66
2019-05-19T06:59:39.806Z,17.42
2019-05-19T07:04:35.746Z,17.92
2019-05-19T07:09:32.272Z,18.96
2019-05-19T07:14:28.374Z,19.76
2019-05-19T07:19:24.301Z,19.85
2019-05-19T07:24:20.240Z,19.26
2019-05-19T07:29:16.296Z,19.47
2019-05-19T07:34:12.231Z,19.71
2019-05-19T07:39:09.025Z,19.46
2019-05-19T07:44:05.237Z,20.14
2019-05-19T07:49:01.137Z,20.34
2019-05-19T07:53:57.078Z,20.62
2019-05-19T07:58:56.967Z,21.28
2019-05-19T08:03:53.080Z,20.65
2019-05-19T08:08:55.064Z,22.07
2019-05-19T08:13:52.800Z,23.06
2019-05-19T08:18:48.724Z,23.50
2019-05-19T08:23:59.174Z,22.28
2019-05-19T08:28:42.477Z,23.22
2019-05-19T08:33:38.447Z,23.88
2019-05-19T08:38:38.069Z,23.04
2019-05-19T08:43:34.098Z,23.46
2019-05-19T08:48:30.049Z,23.79
2019-05-19T08:53:25.980Z,24.12
2019-05-19T08:58:21.897Z,23.44
2019-05-19T09:03:17.830Z,24.08
2019-05-19T09:08:13.761Z,23.25
2019-05-19T09:13:09.788Z,23.49
2019-05-19T09:18:05.931Z,23.92
2019-05-19T09:23:02.009Z,24.41
2019-05-19T09:27:57.933Z,24.37
2019-05-19T09:32:53.866Z,23.61
2019-05-19T09:37:49.801Z,23.97
2019-05-19T09:42:45.730Z,23.78
2019-05-19T09:47:43.931Z,23.97
2019-05-19T09:52:39.959Z,24.06
2019-05-19T09:57:36.039Z,24.16
2019-05-19T10:02:32.039Z,24.39
2019-05-19T10:07:27.965Z,25.08
2019-05-19T10:12:23.892Z,25.20
2019-05-19T10:17:19.817Z,25.62
2019-05-19T10:22:15.741Z,24.02
2019-05-19T10:27:11.670Z,25.18
2019-05-19T10:32:07.599Z,25.28
2019-05-19T10:37:03.789Z,25.46
2019-05-19T10:41:59.769Z,25.46
2019-05-19T10:46:55.710Z,24.58
2019-05-19T10:51:51.828Z,25.14
2019-05-19T10:56:47.802Z,25.52
2019-05-19T11:01:43.738Z,26.45
2019-05-19T11:06:39.668Z,26.71
2019-05-19T11:11:35.598Z,26.49
2019-05-19T11:16:31.692Z,26.33
2019-05-19T11:21:28.197Z,24.44
2019-05-19T11:26:24.165Z,23.94
2019-05-19T11:31:20.202Z,26.05
2019-05-19T11:36:18.023Z,26.89
2019-05-19T11:41:14.041Z,27.31
2019-05-19T11:46:10.110Z,27.97
2019-05-19T11:51:06.129Z,25.37
2019-05-19T11:56:06.604Z,27.32
2019-05-19T12:00:59.902Z,26.82
2019-05-19T12:05:55.823Z,26.71
2019-05-19T12:10:51.749Z,27.23
2019-05-19T12:15:47.686Z,26.76
2019-05-19T12:20:43.616Z,27.82
2019-05-19T12:25:39.544Z,27.29
2019-05-19T12:30:35.572Z,27.69
2019-05-19T12:35:31.505Z,27.60
2019-05-19T12:40:27.530Z,27.68
2019-05-19T12:45:23.562Z,27.24
2019-05-19T12:50:19.590Z,26.12
2019-05-19T12:55:15.723Z,27.21
2019-05-19T13:00:12.273Z,27.48
2019-05-19T13:05:08.484Z,27.31
2019-05-19T13:10:06.611Z,28.40
2019-05-19T13:15:05.449Z,29.14
2019-05-19T13:20:01.733Z,27.72
2019-05-19T13:24:57.961Z,26.23
2019-05-19T13:29:54.098Z,24.97
2019-05-19T13:34:50.134Z,26.05
2019-05-19T13:39:46.076Z,27.38
2019-05-19T13:44:42.043Z,26.88
2019-05-19T13:49:37.972Z,26.64
2019-05-19T13:54:34.050Z,26.17
2019-05-19T13:59:29.986Z,26.09
2019-05-19T14:04:25.912Z,26.86
2019-05-19T14:09:22.541Z,27.09
2019-05-19T14:14:18.549Z,25.43
2019-05-19T14:19:14.557Z,26.15
2019-05-19T14:24:10.495Z,26.20
2019-05-19T14:29:06.425Z,26.15
2019-05-19T14:34:02.362Z,25.91
2019-05-19T14:39:07.009Z,26.00
2019-05-19T14:44:03.517Z,25.99
2019-05-19T14:48:59.443Z,26.22
2019-05-19T14:53:55.369Z,23.75
2019-05-19T14:58:51.296Z,22.21
2019-05-19T15:03:47.234Z,21.12
2019-05-19T15:08:46.833Z,21.42
2019-05-19T15:13:42.868Z,20.91
2019-05-19T15:18:39.458Z,20.39
2019-05-19T15:23:35.354Z,20.73
2019-05-19T15:28:31.285Z,21.59
2019-05-19T15:33:27.242Z,21.32
2019-05-19T15:38:24.687Z,21.37
2019-05-19T15:43:20.715Z,21.21
2019-05-19T15:48:16.753Z,20.99
2019-05-19T15:53:12.682Z,21.05
2019-05-19T15:58:16.676Z,20.64
2019-05-19T16:03:06.466Z,21.03
2019-05-19T16:08:02.461Z,20.92
2019-05-19T16:12:58.395Z,20.81
2019-05-19T16:17:54.326Z,20.49
2019-05-19T16:22:50.266Z,20.57
2019-05-19T16:27:46.205Z,20.73
2019-05-19T16:32:42.136Z,21.55
2019-05-19T16:37:38.066Z,20.92
2019-05-19T16:42:34.206Z,20.96
2019-05-19T16:47:30.149Z,21.43
2019-05-19T16:52:26.708Z,21.34
2019-05-19T16:57:22.642Z,21.02
2019-05-19T17:02:18.583Z,21.27
2019-05-19T17:07:14.518Z,21.65
2019-05-19T17:12:10.453Z,21.78
2019-05-19T17:17:06.379Z,22.15
2019-05-19T17:22:02.365Z,22.38
2019-05-19T17:26:58.292Z,22.64
2019-05-19T17:32:05.379Z,22.62
2019-05-19T17:36:52.163Z,22.78
2019-05-19T17:41:48.090Z,22.43
2019-05-19T17:46:44.020Z,22.73
2019-05-19T17:51:39.946Z,22.58
2019-05-19T17:56:36.082Z,22.89
2019-05-19T18:01:32.015Z,22.41
2019-05-19T18:06:29.753Z,21.46
2019-05-19T18:11:25.778Z,20.78
2019-05-19T18:16:21.720Z,20.64
2019-05-19T18:21:17.662Z,20.43
2019-05-19T18:26:13.593Z,20.55
2019-05-19T18:31:09.536Z,20.82
2019-05-19T18:36:05.476Z,20.53
2019-05-19T18:41:01.409Z,20.07
2019-05-19T18:45:57.369Z,20.10
2019-05-19T18:50:53.378Z,19.84
2019-05-19T18:55:49.310Z,19.60
2019-05-19T19:00:45.348Z,19.41
2019-05-19T19:05:41.278Z,19.55
2019-05-19T19:10:40.673Z,19.55
2019-05-19T19:15:38.009Z,19.33
2019-05-19T19:20:34.679Z,19.22
2019-05-19T19:25:30.757Z,19.04
2019-05-19T19:30:29.568Z,18.71
2019-05-19T19:35:25.586Z,18.36
2019-05-19T19:40:27.430Z,18.69
2019-05-19T19:45:23.367Z,18.61
2019-05-19T19:50:19.354Z,18.37
2019-05-19T19:55:15.299Z,18.27
2019-05-19T20:00:18.423Z,17.99
2019-05-19T20:05:09.821Z,17.45
2019-05-19T20:10:05.985Z,17.34
2019-05-19T20:15:02.222Z,17.75
2019-05-19T20:19:58.146Z,17.41
2019-05-19T20:24:54.074Z,17.28
2019-05-19T20:29:50.013Z,17.16
2019-05-19T20:34:45.938Z,17.37
2019-05-19T20:39:41.869Z,17.13
2019-05-19T20:44:37.799Z,16.73
2019-05-19T20:49:33.797Z,16.70
2019-05-19T20:54:29.724Z,16.49
2019-05-19T20:59:25.671Z,16.49
2019-05-19T21:04:21.599Z,16.43
2019-05-19T21:09:19.187Z,16.32
2019-05-19T21:14:15.093Z,16.27
2019-05-19T21:19:11.020Z,16.37
2019-05-19T21:24:06.993Z,16.98
2019-05-19T21:29:03.091Z,16.46
2019-05-19T21:33:59.086Z,16.43
2019-05-19T21:38:57.476Z,16.06
2019-05-19T21:43:53.709Z,16.26
2019-05-19T21:48:49.644Z,15.89
2019-05-19T21:53:47.176Z,15.65
2019-05-19T21:58:43.108Z,15.41
2019-05-19T22:03:39.139Z,15.12
2019-05-19T22:08:45.613Z,15.27
2019-05-19T22:13:43.233Z,15.43
2019-05-19T22:18:39.164Z,14.84
2019-05-19T22:23:35.189Z,15.37
2019-05-19T22:28:31.113Z,15.04
2019-05-19T22:33:27.041Z,15.25
2019-05-19T22:38:25.848Z,14.62
2019-05-19T22:43:21.802Z,14.31
2019-05-19T22:48:17.719Z,14.39
2019-05-19T22:53:13.654Z,14.02
2019-05-19T22:58:09.582Z,13.81
2019-05-19T23:03:05.516Z,13.70
2019-05-19T23:08:01.440Z,13.46
2019-05-19T23:12:57.367Z,13.36
2019-05-19T23:17:53.300Z,13.91
2019-05-19T23:22:49.332Z,14.00
2019-05-19T23:27:45.264Z,13.89
2019-05-19T23:32:41.194Z,13.65
2019-05-19T23:37:37.134Z,13.34
2019-05-19T23:42:33.762Z,13.84
2019-05-19T23:47:29.716Z,13.41
2019-05-19T23:52:25.655Z,13.00
2019-05-19T23:57:21.555Z,12.81
